ADDS METAR Data INFO
IDs: Format: Raw Decoded Include TAF

Data at: 0024 UTC 17 Dec 2017

KFFC 162353Z AUTO 00000KT 10SM CLR 04/M01 A3027 RMK AO2 SLP258 T00391006 10133 20039 53011
KFFC 162253Z AUTO 00000KT 10SM CLR 06/M01 A3025 RMK AO2 SLP252 T00611006
KFFC 162153Z AUTO 33003KT 10SM CLR 12/M04 A3023 RMK AO2 SLP243 T01221039
KFFC 162053Z AUTO 33005KT 10SM CLR 13/M03 A3023 RMK AO2 SLP244 T01331033 56015
KFFC 161953Z AUTO 32004KT 10SM CLR 12/M04 A3025 RMK AO2 SLP247 T01221039
KFFC 161853Z AUTO VRB04KT 10SM CLR 12/M03 A3026 RMK AO2 SLP251 T01221033
KFFC 161753Z AUTO 32006KT 10SM CLR 11/M03 A3028 RMK AO2 SLP259 I6000 T01061033 10106 21044 58014
KFFC 161653Z AUTO 02003KT 10SM CLR 09/M04 A3030 RMK AO2 SLP265 T00941039
KFFC 161553Z AUTO 31005KT 10SM CLR 07/M03 A3032 RMK AO2 SLP275 T00671033
KFFC 161453Z AUTO 29004KT 9SM CLR 04/M03 A3032 RMK AO2 SLP274 I3000 T00391028 51017
KFFC 161353Z AUTO 30004KT 6SM BR CLR M01/M03 A3031 RMK AO2 SLP271 T10061028
KFFC 161253Z AUTO 00000KT 4SM BR CLR M04/M06 A3029 RMK AO2 SLP267 I1000 T10441056
KFFC 161153Z AUTO 00000KT 6SM BR CLR M04/M06 A3027 RMK AO2 SLP258 I1000 I6000 T10391056 11011 21039 53005
KFFC 161053Z AUTO 00000KT 7SM CLR M03/M05 A3025 RMK AO2 SLP253 I1000 T10331050
KFFC 160953Z AUTO 00000KT 7SM CLR M03/M05 A3025 RMK AO2 SLP252 T10331050
KFFC 160853Z AUTO 00000KT 8SM CLR M02/M04 A3025 RMK AO2 SLP251 T10221044 53003
KFFC 160753Z AUTO 32007KT 8SM CLR M02/M04 A3023 RMK AO2 SLP246 T10171044
KFFC 160653Z AUTO 30004KT 9SM CLR M01/M04 A3024 RMK AO2 SLP246 T10111044
KFFC 160553Z AUTO 00000KT 9SM CLR M02/M04 A3024 RMK AO2 SLP247 T10171039 10033 21022 51009
KFFC 160453Z AUTO 00000KT 10SM CLR M01/M04 A3023 RMK AO2 SLP245 T10111044 400721011
KFFC 160353Z AUTO 30003KT 10SM CLR 00/M04 A3023 RMK AO2 SLP243 T00001044
KFFC 160253Z AUTO 32007KT 10SM CLR 01/M04 A3021 RMK AO2 SLP237 T00111044 53012
KFFC 160153Z AUTO 32007KT 10SM CLR 02/M04 A3019 RMK AO2 SLP231 T00221044
KFFC 160053Z AUTO 32009KT 10SM CLR 03/M04 A3019 RMK AO2 SLP229 T00331044
KFFC 152353Z AUTO 31008KT 10SM CLR 03/M04 A3018 RMK AO2 SLP226 T00331039 10072 20033 53018
KFFC 152253Z AUTO 31009KT 10SM CLR 04/M04 A3014 RMK AO2 SLP214 T00391044
KFFC 152153Z AUTO 30010KT 10SM CLR 04/M04 A3013 RMK AO2 SLP210 T00441044
KFFC 152053Z AUTO 31010KT 10SM FEW120 05/M04 A3012 RMK AO2 SLP206 T00501044 53011
KFFC 151953Z AUTO 31011KT 10SM CLR 06/M04 A3010 RMK AO2 SLP199 T00561044
KFFC 151853Z AUTO 29010G15KT 10SM CLR 06/M04 A3010 RMK AO2 SLP197 T00611044
KFFC 151753Z AUTO 29008KT 10SM CLR 07/M03 A3009 RMK AO2 SLP193 T00721033 10072 20006 50000
KFFC 151653Z AUTO 29011G16KT 10SM CLR 07/M03 A3009 RMK AO2 SLP196 T00671033
KFFC 151553Z AUTO 30008KT 10SM CLR 06/M02 A3009 RMK AO2 SLP196 T00561017
KFFC 151453Z AUTO 30005KT 10SM CLR 04/M01 A3009 RMK AO2 SLP194 T00441006 53020
KFFC 151353Z AUTO 31004KT 9SM CLR 03/00 A3006 RMK AO2 SLP184 T00330000
KFFC 151253Z AUTO 31003KT 10SM CLR 02/00 A3005 RMK AO2 SLP182 T00220000